sensor_id;sensor_type;location;lat;lon;timestamp;temperature;humidity
7842;DHT22;3966;51.052;13.820;2023-07-09T00:02:20;19.90;99.90
7842;DHT22;3966;51.052;13.820;2023-07-09T00:04:46;20.00;99.90
7842;DHT22;3966;51.052;13.820;2023-07-09T00:07:30;19.90;99.90
7842;DHT22;3966;51.052;13.820;2023-07-09T00:09:56;19.90;99.90
7842;DHT22;3966;51.052;13.820;2023-07-09T00:12:23;19.80;99.90
7842;DHT22;3966;51.052;13.820;2023-07-09T00:14:49;19.80;99.90
7842;DHT22;3966;51.052;13.820;2023-07-09T00:17:33;19.80;99.90
7842;DHT22;3966;51.052;13.820;2023-07-09T00:19:59;19.80;99.90
7842;DHT22;3966;51.052;13.820;2023-07-09T00:22:25;19.80;99.90
7842;DHT22;3966;51.052;13.820;2023-07-09T00:24:53;19.70;99.90
7842;DHT22;3966;51.052;13.820;2023-07-09T00:27:23;19.70;99.90
7842;DHT22;3966;51.052;13.820;2023-07-09T00:29:51;19.60;99.90
7842;DHT22;3966;51.052;13.820;2023-07-09T00:32:19;19.60;99.90
7842;DHT22;3966;51.052;13.820;2023-07-09T00:34:47;19.60;99.90
7842;DHT22;3966;51.052;13.820;2023-07-09T00:37:15;19.60;99.90
7842;DHT22;3966;51.052;13.820;2023-07-09T00:39:43;19.60;99.90
7842;DHT22;3966;51.052;13.820;2023-07-09T00:42:19;19.50;99.90
7842;DHT22;3966;51.052;13.820;2023-07-09T00:44:47;19.40;99.90
7842;DHT22;3966;51.052;13.820;2023-07-09T00:47:21;19.40;99.90
7842;DHT22;3966;51.052;13.820;2023-07-09T00:49:49;19.20;99.90
7842;DHT22;3966;51.052;13.820;2023-07-09T00:54:49;19.20;99.90
7842;DHT22;3966;51.052;13.820;2023-07-09T00:57:19;19.20;99.90
7842;DHT22;3966;51.052;13.820;2023-07-09T00:59:50;19.20;99.90
7842;DHT22;3966;51.052;13.820;2023-07-09T01:02:19;19.20;99.90
7842;DHT22;3966;51.052;13.820;2023-07-09T01:04:50;19.10;99.90
7842;DHT22;3966;51.052;13.820;2023-07-09T01:07:16;19.10;99.90
7842;DHT22;3966;51.052;13.820;2023-07-09T01:09:42;19.10;99.90
7842;DHT22;3966;51.052;13.820;2023-07-09T01:12:09;19.00;99.90
7842;DHT22;3966;51.052;13.820;2023-07-09T01:14:35;19.00;99.90
7842;DHT22;3966;51.052;13.820;2023-07-09T01:17:05;18.90;99.90
7842;DHT22;3966;51.052;13.820;2023-07-09T01:19:38;18.90;99.90
7842;DHT22;3966;51.052;13.820;2023-07-09T01:22:13;18.90;99.90
7842;DHT22;3966;51.052;13.820;2023-07-09T01:24:52;18.80;99.90
7842;DHT22;3966;51.052;13.820;2023-07-09T01:27:23;18.80;99.90
7842;DHT22;3966;51.052;13.820;2023-07-09T01:29:53;18.80;99.90
7842;DHT22;3966;51.052;13.820;2023-07-09T01:32:20;18.70;99.90
7842;DHT22;3966;51.052;13.820;2023-07-09T01:34:48;18.70;99.90
7842;DHT22;3966;51.052;13.820;2023-07-09T01:37:19;18.70;99.90
7842;DHT22;3966;51.052;13.820;2023-07-09T01:39:47;18.60;99.90
7842;DHT22;3966;51.052;13.820;2023-07-09T01:42:15;18.50;99.90
7842;DHT22;3966;51.052;13.820;2023-07-09T01:44:41;18.30;99.90
7842;DHT22;3966;51.052;13.820;2023-07-09T01:47:06;18.30;99.90
7842;DHT22;3966;51.052;13.820;2023-07-09T01:49:32;18.30;99.90
7842;DHT22;3966;51.052;13.820;2023-07-09T01:52:01;18.30;99.90
7842;DHT22;3966;51.052;13.820;2023-07-09T01:54:31;18.30;99.90
7842;DHT22;3966;51.052;13.820;2023-07-09T01:57:25;18.30;99.90
7842;DHT22;3966;51.052;13.820;2023-07-09T01:59:55;18.30;99.90
7842;DHT22;3966;51.052;13.820;2023-07-09T02:02:21;18.20;99.90
7842;DHT22;3966;51.052;13.820;2023-07-09T02:04:49;18.20;99.90
7842;DHT22;3966;51.052;13.820;2023-07-09T02:07:15;18.20;99.90
7842;DHT22;3966;51.052;13.820;2023-07-09T02:09:41;18.20;99.90
7842;DHT22;3966;51.052;13.820;2023-07-09T02:12:09;18.20;99.90
7842;DHT22;3966;51.052;13.820;2023-07-09T02:14:35;18.20;99.90
7842;DHT22;3966;51.052;13.820;2023-07-09T02:17:01;18.10;99.90
7842;DHT22;3966;51.052;13.820;2023-07-09T02:19:28;18.00;99.90
7842;DHT22;3966;51.052;13.820;2023-07-09T02:21:54;17.90;99.90
7842;DHT22;3966;51.052;13.820;2023-07-09T02:24:20;17.80;99.90
7842;DHT22;3966;51.052;13.820;2023-07-09T02:26:50;17.80;99.90
7842;DHT22;3966;51.052;13.820;2023-07-09T02:29:16;17.70;99.90
7842;DHT22;3966;51.052;13.820;2023-07-09T02:31:42;17.80;99.90
7842;DHT22;3966;51.052;13.820;2023-07-09T02:34:08;17.80;99.90
7842;DHT22;3966;51.052;13.820;2023-07-09T02:36:33;17.90;99.90
7842;DHT22;3966;51.052;13.820;2023-07-09T02:38:59;17.80;99.90
7842;DHT22;3966;51.052;13.820;2023-07-09T02:41:24;17.70;99.90
7842;DHT22;3966;51.052;13.820;2023-07-09T02:43:50;17.60;99.90
7842;DHT22;3966;51.052;13.820;2023-07-09T02:46:16;17.60;99.90
7842;DHT22;3966;51.052;13.820;2023-07-09T02:48:41;17.50;99.90
7842;DHT22;3966;51.052;13.820;2023-07-09T02:51:07;17.40;99.90
7842;DHT22;3966;51.052;13.820;2023-07-09T02:53:32;17.40;99.90
7842;DHT22;3966;51.052;13.820;2023-07-09T02:55:58;17.40;99.90
7842;DHT22;3966;51.052;13.820;2023-07-09T02:58:24;17.40;99.90
7842;DHT22;3966;51.052;13.820;2023-07-09T03:00:50;17.40;99.90
7842;DHT22;3966;51.052;13.820;2023-07-09T03:03:19;17.40;99.90
7842;DHT22;3966;51.052;13.820;2023-07-09T03:05:46;17.30;99.90
7842;DHT22;3966;51.052;13.820;2023-07-09T03:08:12;17.20;99.90
7842;DHT22;3966;51.052;13.820;2023-07-09T03:10:38;17.20;99.90
7842;DHT22;3966;51.052;13.820;2023-07-09T03:13:04;17.20;99.90
7842;DHT22;3966;51.052;13.820;2023-07-09T03:15:30;17.30;99.90
7842;DHT22;3966;51.052;13.820;2023-07-09T03:17:56;17.20;99.90
7842;DHT22;3966;51.052;13.820;2023-07-09T03:20:22;17.30;99.90
7842;DHT22;3966;51.052;13.820;2023-07-09T03:22:47;17.30;99.90
7842;DHT22;3966;51.052;13.820;2023-07-09T03:25:13;17.30;99.90
7842;DHT22;3966;51.052;13.820;2023-07-09T03:27:39;17.20;99.90
7842;DHT22;3966;51.052;13.820;2023-07-09T03:30:05;17.30;99.90
7842;DHT22;3966;51.052;13.820;2023-07-09T03:32:31;17.10;99.90
7842;DHT22;3966;51.052;13.820;2023-07-09T03:34:57;17.20;99.90
7842;DHT22;3966;51.052;13.820;2023-07-09T03:37:23;17.30;99.90
7842;DHT22;3966;51.052;13.820;2023-07-09T03:39:48;17.30;99.90
7842;DHT22;3966;51.052;13.820;2023-07-09T03:42:14;17.20;99.90
7842;DHT22;3966;51.052;13.820;2023-07-09T03:44:40;17.10;99.90
7842;DHT22;3966;51.052;13.820;2023-07-09T03:47:06;17.20;99.90
7842;DHT22;3966;51.052;13.820;2023-07-09T03:49:32;17.10;99.90
7842;DHT22;3966;51.052;13.820;2023-07-09T03:51:58;17.10;99.90
7842;DHT22;3966;51.052;13.820;2023-07-09T03:54:24;17.10;99.90
7842;DHT22;3966;51.052;13.820;2023-07-09T03:56:50;17.10;99.90
7842;DHT22;3966;51.052;13.820;2023-07-09T03:59:15;17.20;99.90
7842;DHT22;3966;51.052;13.820;2023-07-09T04:01:41;17.20;99.90
7842;DHT22;3966;51.052;13.820;2023-07-09T04:04:12;17.20;99.90
7842;DHT22;3966;51.052;13.820;2023-07-09T04:06:38;17.20;99.90
7842;DHT22;3966;51.052;13.820;2023-07-09T04:09:04;17.20;99.90
7842;DHT22;3966;51.052;13.820;2023-07-09T04:11:29;17.20;99.90
7842;DHT22;3966;51.052;13.820;2023-07-09T04:13:55;17.20;99.90
7842;DHT22;3966;51.052;13.820;2023-07-09T04:16:21;17.20;99.90
7842;DHT22;3966;51.052;13.820;2023-07-09T04:18:46;17.30;99.90
7842;DHT22;3966;51.052;13.820;2023-07-09T04:21:12;17.20;99.90
7842;DHT22;3966;51.052;13.820;2023-07-09T04:23:38;17.20;99.90
7842;DHT22;3966;51.052;13.820;2023-07-09T04:26:03;17.20;99.90
7842;DHT22;3966;51.052;13.820;2023-07-09T04:28:30;17.20;99.90
7842;DHT22;3966;51.052;13.820;2023-07-09T04:30:56;17.30;99.90
7842;DHT22;3966;51.052;13.820;2023-07-09T04:33:22;17.30;99.90
7842;DHT22;3966;51.052;13.820;2023-07-09T04:35:48;17.40;99.90
7842;DHT22;3966;51.052;13.820;2023-07-09T04:38:15;17.40;99.90
7842;DHT22;3966;51.052;13.820;2023-07-09T04:40:41;17.40;99.90
7842;DHT22;3966;51.052;13.820;2023-07-09T04:43:07;17.40;99.90
7842;DHT22;3966;51.052;13.820;2023-07-09T04:45:32;17.40;99.90
7842;DHT22;3966;51.052;13.820;2023-07-09T04:47:58;17.40;99.90
7842;DHT22;3966;51.052;13.820;2023-07-09T04:50:24;17.50;99.90
7842;DHT22;3966;51.052;13.820;2023-07-09T04:52:49;17.50;99.90
7842;DHT22;3966;51.052;13.820;2023-07-09T04:55:15;17.50;99.90
7842;DHT22;3966;51.052;13.820;2023-07-09T04:57:44;17.50;99.90
7842;DHT22;3966;51.052;13.820;2023-07-09T05:00:11;17.40;99.90
7842;DHT22;3966;51.052;13.820;2023-07-09T05:02:36;17.30;99.90
7842;DHT22;3966;51.052;13.820;2023-07-09T05:05:02;17.40;99.90
7842;DHT22;3966;51.052;13.820;2023-07-09T05:07:28;17.40;99.90
7842;DHT22;3966;51.052;13.820;2023-07-09T05:09:53;17.40;99.90
7842;DHT22;3966;51.052;13.820;2023-07-09T05:12:19;17.50;99.90
7842;DHT22;3966;51.052;13.820;2023-07-09T05:14:46;17.50;99.90
7842;DHT22;3966;51.052;13.820;2023-07-09T05:17:12;17.60;99.90
7842;DHT22;3966;51.052;13.820;2023-07-09T05:19:38;17.60;99.90
7842;DHT22;3966;51.052;13.820;2023-07-09T05:22:04;17.70;99.90
7842;DHT22;3966;51.052;13.820;2023-07-09T05:24:30;17.80;99.90
7842;DHT22;3966;51.052;13.820;2023-07-09T05:26:55;17.80;99.90
7842;DHT22;3966;51.052;13.820;2023-07-09T05:29:21;17.90;99.90
7842;DHT22;3966;51.052;13.820;2023-07-09T05:31:47;17.90;99.90
7842;DHT22;3966;51.052;13.820;2023-07-09T05:34:13;17.90;99.90
7842;DHT22;3966;51.052;13.820;2023-07-09T05:36:38;18.00;99.90
7842;DHT22;3966;51.052;13.820;2023-07-09T05:39:04;18.00;99.90
7842;DHT22;3966;51.052;13.820;2023-07-09T05:41:30;18.10;99.90
7842;DHT22;3966;51.052;13.820;2023-07-09T05:43:56;18.10;99.90
7842;DHT22;3966;51.052;13.820;2023-07-09T05:46:22;18.10;99.90
7842;DHT22;3966;51.052;13.820;2023-07-09T05:48:48;18.20;99.90
7842;DHT22;3966;51.052;13.820;2023-07-09T05:51:14;18.30;99.90
7842;DHT22;3966;51.052;13.820;2023-07-09T05:53:39;18.40;99.90
7842;DHT22;3966;51.052;13.820;2023-07-09T05:56:05;18.40;99.90
7842;DHT22;3966;51.052;13.820;2023-07-09T05:58:31;18.50;99.90
7842;DHT22;3966;51.052;13.820;2023-07-09T06:00:57;18.70;99.90
7842;DHT22;3966;51.052;13.820;2023-07-09T06:03:24;18.80;99.90
7842;DHT22;3966;51.052;13.820;2023-07-09T06:05:50;18.90;99.90
7842;DHT22;3966;51.052;13.820;2023-07-09T06:08:20;19.00;99.90
7842;DHT22;3966;51.052;13.820;2023-07-09T06:11:01;19.10;99.90
7842;DHT22;3966;51.052;13.820;2023-07-09T06:13:28;19.20;99.90
7842;DHT22;3966;51.052;13.820;2023-07-09T06:15:56;19.30;99.90
7842;DHT22;3966;51.052;13.820;2023-07-09T06:18:24;19.40;99.90
7842;DHT22;3966;51.052;13.820;2023-07-09T06:20:51;19.50;99.90
7842;DHT22;3966;51.052;13.820;2023-07-09T06:23:18;19.60;99.90
7842;DHT22;3966;51.052;13.820;2023-07-09T06:25:45;19.70;99.90
7842;DHT22;3966;51.052;13.820;2023-07-09T06:28:19;19.70;99.90
7842;DHT22;3966;51.052;13.820;2023-07-09T06:30:45;19.90;99.90
7842;DHT22;3966;51.052;13.820;2023-07-09T06:33:12;20.00;99.90
7842;DHT22;3966;51.052;13.820;2023-07-09T06:35:39;20.20;99.90
7842;DHT22;3966;51.052;13.820;2023-07-09T06:38:05;20.30;99.90
7842;DHT22;3966;51.052;13.820;2023-07-09T06:40:31;20.40;99.90
7842;DHT22;3966;51.052;13.820;2023-07-09T06:42:57;20.50;99.90
7842;DHT22;3966;51.052;13.820;2023-07-09T06:45:24;20.60;99.90
7842;DHT22;3966;51.052;13.820;2023-07-09T06:47:49;20.70;99.90
7842;DHT22;3966;51.052;13.820;2023-07-09T06:50:15;20.80;99.90
7842;DHT22;3966;51.052;13.820;2023-07-09T06:52:41;21.00;99.90
7842;DHT22;3966;51.052;13.820;2023-07-09T06:55:07;21.00;99.90
7842;DHT22;3966;51.052;13.820;2023-07-09T06:57:33;21.10;99.90
7842;DHT22;3966;51.052;13.820;2023-07-09T06:59:58;21.20;99.90
7842;DHT22;3966;51.052;13.820;2023-07-09T07:02:24;21.40;99.90
7842;DHT22;3966;51.052;13.820;2023-07-09T07:04:50;21.50;99.90
7842;DHT22;3966;51.052;13.820;2023-07-09T07:07:15;21.50;99.90
7842;DHT22;3966;51.052;13.820;2023-07-09T07:09:41;21.60;99.90
7842;DHT22;3966;51.052;13.820;2023-07-09T07:12:07;21.80;99.90
7842;DHT22;3966;51.052;13.820;2023-07-09T07:14:33;21.90;99.90
7842;DHT22;3966;51.052;13.820;2023-07-09T07:16:58;22.00;99.90
7842;DHT22;3966;51.052;13.820;2023-07-09T07:19:24;22.20;99.90
7842;DHT22;3966;51.052;13.820;2023-07-09T07:21:50;22.30;99.90
7842;DHT22;3966;51.052;13.820;2023-07-09T07:24:15;22.40;99.90
7842;DHT22;3966;51.052;13.820;2023-07-09T07:26:41;22.50;99.90
7842;DHT22;3966;51.052;13.820;2023-07-09T07:29:06;22.60;99.90
7842;DHT22;3966;51.052;13.820;2023-07-09T07:31:32;22.80;99.90
7842;DHT22;3966;51.052;13.820;2023-07-09T07:33:58;22.90;99.90
7842;DHT22;3966;51.052;13.820;2023-07-09T07:36:23;23.10;99.90
7842;DHT22;3966;51.052;13.820;2023-07-09T07:38:49;23.20;99.90
7842;DHT22;3966;51.052;13.820;2023-07-09T07:41:14;23.30;99.90
7842;DHT22;3966;51.052;13.820;2023-07-09T07:43:40;23.40;99.90
7842;DHT22;3966;51.052;13.820;2023-07-09T07:46:07;23.50;99.90
7842;DHT22;3966;51.052;13.820;2023-07-09T07:48:33;23.60;99.90
7842;DHT22;3966;51.052;13.820;2023-07-09T07:51:02;23.80;99.90
7842;DHT22;3966;51.052;13.820;2023-07-09T07:53:32;23.90;99.90
7842;DHT22;3966;51.052;13.820;2023-07-09T07:55:58;24.00;99.90
7842;DHT22;3966;51.052;13.820;2023-07-09T07:58:23;24.10;99.90
7842;DHT22;3966;51.052;13.820;2023-07-09T08:00:49;24.30;99.90
7842;DHT22;3966;51.052;13.820;2023-07-09T08:03:16;24.40;99.90
7842;DHT22;3966;51.052;13.820;2023-07-09T08:05:41;24.60;99.90
7842;DHT22;3966;51.052;13.820;2023-07-09T08:08:07;24.80;99.90
7842;DHT22;3966;51.052;13.820;2023-07-09T08:10:32;24.90;99.90
7842;DHT22;3966;51.052;13.820;2023-07-09T08:12:58;25.10;99.90
7842;DHT22;3966;51.052;13.820;2023-07-09T08:15:24;25.20;99.90
7842;DHT22;3966;51.052;13.820;2023-07-09T08:17:50;25.40;99.90
7842;DHT22;3966;51.052;13.820;2023-07-09T08:20:16;25.50;99.90
7842;DHT22;3966;51.052;13.820;2023-07-09T08:22:42;25.70;99.90
7842;DHT22;3966;51.052;13.820;2023-07-09T08:25:08;25.80;99.90
7842;DHT22;3966;51.052;13.820;2023-07-09T08:27:33;25.90;99.90
7842;DHT22;3966;51.052;13.820;2023-07-09T08:29:59;26.10;99.90
7842;DHT22;3966;51.052;13.820;2023-07-09T08:32:25;26.20;99.90
7842;DHT22;3966;51.052;13.820;2023-07-09T08:34:50;26.30;99.90
7842;DHT22;3966;51.052;13.820;2023-07-09T08:37:16;26.50;99.90
7842;DHT22;3966;51.052;13.820;2023-07-09T08:39:41;26.60;99.90
7842;DHT22;3966;51.052;13.820;2023-07-09T08:42:10;26.80;99.90
7842;DHT22;3966;51.052;13.820;2023-07-09T08:49:49;27.40;99.90
7842;DHT22;3966;51.052;13.820;2023-07-09T08:52:35;27.50;99.90
7842;DHT22;3966;51.052;13.820;2023-07-09T08:55:08;27.70;99.90
7842;DHT22;3966;51.052;13.820;2023-07-09T08:57:39;27.80;99.90
7842;DHT22;3966;51.052;13.820;2023-07-09T09:03:08;28.20;96.30
7842;DHT22;3966;51.052;13.820;2023-07-09T09:05:39;28.40;88.20
7842;DHT22;3966;51.052;13.820;2023-07-09T09:10:58;28.60;86.10
7842;DHT22;3966;51.052;13.820;2023-07-09T09:13:27;28.70;83.20
7842;DHT22;3966;51.052;13.820;2023-07-09T09:15:56;28.80;80.00
7842;DHT22;3966;51.052;13.820;2023-07-09T09:18:32;28.80;77.30
7842;DHT22;3966;51.052;13.820;2023-07-09T09:21:21;28.90;77.00
7842;DHT22;3966;51.052;13.820;2023-07-09T09:23:56;29.00;76.30
7842;DHT22;3966;51.052;13.820;2023-07-09T09:28:54;29.20;73.60
7842;DHT22;3966;51.052;13.820;2023-07-09T09:31:20;29.30;71.40
7842;DHT22;3966;51.052;13.820;2023-07-09T09:33:48;29.30;73.10
7842;DHT22;3966;51.052;13.820;2023-07-09T09:36:20;29.40;68.00
7842;DHT22;3966;51.052;13.820;2023-07-09T09:38:46;29.60;64.30
7842;DHT22;3966;51.052;13.820;2023-07-09T09:41:23;29.70;62.80
7842;DHT22;3966;51.052;13.820;2023-07-09T09:43:52;29.80;60.50
7842;DHT22;3966;51.052;13.820;2023-07-09T09:46:21;29.90;58.40
7842;DHT22;3966;51.052;13.820;2023-07-09T09:48:48;30.00;58.60
7842;DHT22;3966;51.052;13.820;2023-07-09T09:51:16;30.20;57.80
7842;DHT22;3966;51.052;13.820;2023-07-09T09:53:47;30.30;57.80
7842;DHT22;3966;51.052;13.820;2023-07-09T09:56:33;30.30;56.70
7842;DHT22;3966;51.052;13.820;2023-07-09T09:59:00;30.40;54.60
7842;DHT22;3966;51.052;13.820;2023-07-09T10:01:34;30.50;55.30
7842;DHT22;3966;51.052;13.820;2023-07-09T10:04:05;30.60;57.50
7842;DHT22;3966;51.052;13.820;2023-07-09T10:06:40;30.70;59.40
7842;DHT22;3966;51.052;13.820;2023-07-09T10:09:15;30.50;57.40
7842;DHT22;3966;51.052;13.820;2023-07-09T10:12:11;30.50;56.60
7842;DHT22;3966;51.052;13.820;2023-07-09T10:15:01;30.30;56.60
7842;DHT22;3966;51.052;13.820;2023-07-09T10:25:51;31.00;52.20
7842;DHT22;3966;51.052;13.820;2023-07-09T10:33:53;31.20;51.80
7842;DHT22;3966;51.052;13.820;2023-07-09T10:36:48;31.40;51.20
7842;DHT22;3966;51.052;13.820;2023-07-09T10:39:22;31.50;52.30
7842;DHT22;3966;51.052;13.820;2023-07-09T10:41:50;31.60;51.20
7842;DHT22;3966;51.052;13.820;2023-07-09T10:44:22;31.70;50.70
7842;DHT22;3966;51.052;13.820;2023-07-09T10:46:54;31.80;51.70
7842;DHT22;3966;51.052;13.820;2023-07-09T10:49:21;31.80;50.90
7842;DHT22;3966;51.052;13.820;2023-07-09T10:51:58;31.80;51.00
7842;DHT22;3966;51.052;13.820;2023-07-09T10:54:33;31.40;49.40
7842;DHT22;3966;51.052;13.820;2023-07-09T10:57:30;31.60;50.90
7842;DHT22;3966;51.052;13.820;2023-07-09T11:00:01;31.70;51.10
7842;DHT22;3966;51.052;13.820;2023-07-09T11:02:30;32.00;49.90
7842;DHT22;3966;51.052;13.820;2023-07-09T11:04:59;32.20;50.80
7842;DHT22;3966;51.052;13.820;2023-07-09T11:10:04;32.30;50.70
7842;DHT22;3966;51.052;13.820;2023-07-09T11:12:38;32.60;49.20
7842;DHT22;3966;51.052;13.820;2023-07-09T11:15:12;32.90;48.70
7842;DHT22;3966;51.052;13.820;2023-07-09T11:17:40;32.60;48.30
7842;DHT22;3966;51.052;13.820;2023-07-09T11:20:18;32.70;49.20
7842;DHT22;3966;51.052;13.820;2023-07-09T11:22:52;32.90;49.90
7842;DHT22;3966;51.052;13.820;2023-07-09T11:25:28;33.00;48.70
7842;DHT22;3966;51.052;13.820;2023-07-09T11:28:03;33.10;47.60
7842;DHT22;3966;51.052;13.820;2023-07-09T11:30:29;32.90;47.60
7842;DHT22;3966;51.052;13.820;2023-07-09T11:33:03;32.60;48.30
7842;DHT22;3966;51.052;13.820;2023-07-09T11:35:48;32.70;48.50
7842;DHT22;3966;51.052;13.820;2023-07-09T11:38:19;32.60;48.20
7842;DHT22;3966;51.052;13.820;2023-07-09T11:40:55;32.90;50.00
7842;DHT22;3966;51.052;13.820;2023-07-09T11:43:46;33.10;49.70
7842;DHT22;3966;51.052;13.820;2023-07-09T11:46:17;33.20;49.20
7842;DHT22;3966;51.052;13.820;2023-07-09T11:48:44;33.40;48.50
7842;DHT22;3966;51.052;13.820;2023-07-09T11:51:45;33.60;47.60
7842;DHT22;3966;51.052;13.820;2023-07-09T11:54:13;33.20;47.20
7842;DHT22;3966;51.052;13.820;2023-07-09T11:56:41;33.00;45.70
7842;DHT22;3966;51.052;13.820;2023-07-09T11:59:10;33.10;46.90
7842;DHT22;3966;51.052;13.820;2023-07-09T12:01:43;33.40;46.30
7842;DHT22;3966;51.052;13.820;2023-07-09T12:04:16;33.60;45.40
7842;DHT22;3966;51.052;13.820;2023-07-09T12:06:42;33.60;45.30
7842;DHT22;3966;51.052;13.820;2023-07-09T12:09:19;33.50;45.70
7842;DHT22;3966;51.052;13.820;2023-07-09T12:11:47;33.20;45.30
7842;DHT22;3966;51.052;13.820;2023-07-09T12:14:19;32.70;46.60
7842;DHT22;3966;51.052;13.820;2023-07-09T12:16:50;33.20;47.50
7842;DHT22;3966;51.052;13.820;2023-07-09T12:19:19;33.60;46.90
7842;DHT22;3966;51.052;13.820;2023-07-09T12:21:47;33.60;46.60
7842;DHT22;3966;51.052;13.820;2023-07-09T12:24:21;33.30;46.00
7842;DHT22;3966;51.052;13.820;2023-07-09T12:26:56;33.60;45.80
7842;DHT22;3966;51.052;13.820;2023-07-09T12:29:36;33.90;45.80
7842;DHT22;3966;51.052;13.820;2023-07-09T12:32:16;34.30;46.50
7842;DHT22;3966;51.052;13.820;2023-07-09T12:34:46;34.10;44.90
7842;DHT22;3966;51.052;13.820;2023-07-09T12:37:14;34.40;45.60
7842;DHT22;3966;51.052;13.820;2023-07-09T12:39:40;34.90;45.40
7842;DHT22;3966;51.052;13.820;2023-07-09T12:42:16;35.40;44.30
7842;DHT22;3966;51.052;13.820;2023-07-09T12:44:42;35.80;43.50
7842;DHT22;3966;51.052;13.820;2023-07-09T12:47:15;35.40;42.80
7842;DHT22;3966;51.052;13.820;2023-07-09T12:49:44;35.30;44.40
7842;DHT22;3966;51.052;13.820;2023-07-09T12:52:19;35.10;44.10
7842;DHT22;3966;51.052;13.820;2023-07-09T12:55:01;35.20;44.30
7842;DHT22;3966;51.052;13.820;2023-07-09T12:57:28;35.20;43.60
7842;DHT22;3966;51.052;13.820;2023-07-09T12:59:56;35.20;42.60
7842;DHT22;3966;51.052;13.820;2023-07-09T13:02:25;34.90;43.10
7842;DHT22;3966;51.052;13.820;2023-07-09T13:05:04;34.70;43.20
7842;DHT22;3966;51.052;13.820;2023-07-09T13:07:33;35.00;44.50
7842;DHT22;3966;51.052;13.820;2023-07-09T13:10:06;35.50;44.20
7842;DHT22;3966;51.052;13.820;2023-07-09T13:12:33;35.70;41.80
7842;DHT22;3966;51.052;13.820;2023-07-09T13:14:59;36.20;42.10
7842;DHT22;3966;51.052;13.820;2023-07-09T13:17:32;36.30;40.50
7842;DHT22;3966;51.052;13.820;2023-07-09T13:19:58;36.10;40.90
7842;DHT22;3966;51.052;13.820;2023-07-09T13:22:24;35.60;41.10
7842;DHT22;3966;51.052;13.820;2023-07-09T13:24:50;35.60;42.10
7842;DHT22;3966;51.052;13.820;2023-07-09T13:27:16;35.90;41.50
7842;DHT22;3966;51.052;13.820;2023-07-09T13:29:42;35.40;40.30
7842;DHT22;3966;51.052;13.820;2023-07-09T13:32:13;35.70;41.70
7842;DHT22;3966;51.052;13.820;2023-07-09T13:34:39;36.60;40.70
7842;DHT22;3966;51.052;13.820;2023-07-09T13:37:11;37.20;40.10
7842;DHT22;3966;51.052;13.820;2023-07-09T13:39:37;37.80;39.40
7842;DHT22;3966;51.052;13.820;2023-07-09T13:42:05;38.20;38.40
7842;DHT22;3966;51.052;13.820;2023-07-09T13:44:34;36.30;39.50
7842;DHT22;3966;51.052;13.820;2023-07-09T13:47:01;35.20;41.00
7842;DHT22;3966;51.052;13.820;2023-07-09T13:49:27;35.40;41.50
7842;DHT22;3966;51.052;13.820;2023-07-09T13:51:57;35.80;41.70
7842;DHT22;3966;51.052;13.820;2023-07-09T13:54:29;36.10;40.80
7842;DHT22;3966;51.052;13.820;2023-07-09T13:57:12;35.70;39.80
7842;DHT22;3966;51.052;13.820;2023-07-09T13:59:38;35.70;40.70
7842;DHT22;3966;51.052;13.820;2023-07-09T14:02:25;36.30;40.40
7842;DHT22;3966;51.052;13.820;2023-07-09T14:04:55;36.90;39.60
7842;DHT22;3966;51.052;13.820;2023-07-09T14:07:32;37.20;39.20
7842;DHT22;3966;51.052;13.820;2023-07-09T14:09:59;37.60;39.30
7842;DHT22;3966;51.052;13.820;2023-07-09T14:12:26;37.40;38.80
7842;DHT22;3966;51.052;13.820;2023-07-09T14:14:53;37.10;39.00
7842;DHT22;3966;51.052;13.820;2023-07-09T14:17:21;37.10;39.00
7842;DHT22;3966;51.052;13.820;2023-07-09T14:19:48;37.50;39.00
7842;DHT22;3966;51.052;13.820;2023-07-09T14:22:28;38.10;38.30
7842;DHT22;3966;51.052;13.820;2023-07-09T14:24:57;37.10;38.50
7842;DHT22;3966;51.052;13.820;2023-07-09T14:27:23;37.00;39.70
7842;DHT22;3966;51.052;13.820;2023-07-09T14:29:48;36.60;40.00
7842;DHT22;3966;51.052;13.820;2023-07-09T14:32:38;36.50;40.40
7842;DHT22;3966;51.052;13.820;2023-07-09T14:35:15;37.00;39.50
7842;DHT22;3966;51.052;13.820;2023-07-09T14:37:44;37.70;38.20
7842;DHT22;3966;51.052;13.820;2023-07-09T14:40:11;37.20;38.60
7842;DHT22;3966;51.052;13.820;2023-07-09T14:42:38;36.90;39.10
7842;DHT22;3966;51.052;13.820;2023-07-09T14:45:05;37.20;38.30
7842;DHT22;3966;51.052;13.820;2023-07-09T14:47:31;36.30;38.60
7842;DHT22;3966;51.052;13.820;2023-07-09T14:49:57;36.00;39.40
7842;DHT22;3966;51.052;13.820;2023-07-09T14:52:22;36.50;39.80
7842;DHT22;3966;51.052;13.820;2023-07-09T14:54:49;37.00;39.80
7842;DHT22;3966;51.052;13.820;2023-07-09T14:57:25;37.20;38.30
7842;DHT22;3966;51.052;13.820;2023-07-09T14:59:52;37.20;37.60
7842;DHT22;3966;51.052;13.820;2023-07-09T15:02:22;37.40;38.30
7842;DHT22;3966;51.052;13.820;2023-07-09T15:04:48;37.90;36.70
7842;DHT22;3966;51.052;13.820;2023-07-09T15:07:15;37.90;37.00
7842;DHT22;3966;51.052;13.820;2023-07-09T15:09:40;37.60;37.00
7842;DHT22;3966;51.052;13.820;2023-07-09T15:12:15;37.50;38.30
7842;DHT22;3966;51.052;13.820;2023-07-09T15:14:41;37.60;38.10
7842;DHT22;3966;51.052;13.820;2023-07-09T15:17:10;37.50;38.40
7842;DHT22;3966;51.052;13.820;2023-07-09T15:19:35;37.70;38.50
7842;DHT22;3966;51.052;13.820;2023-07-09T15:22:01;37.90;38.70
7842;DHT22;3966;51.052;13.820;2023-07-09T15:26:55;37.40;37.70
7842;DHT22;3966;51.052;13.820;2023-07-09T15:29:21;37.80;39.20
7842;DHT22;3966;51.052;13.820;2023-07-09T15:31:48;37.50;38.90
7842;DHT22;3966;51.052;13.820;2023-07-09T15:34:14;36.80;38.30
7842;DHT22;3966;51.052;13.820;2023-07-09T15:36:45;36.80;38.60
7842;DHT22;3966;51.052;13.820;2023-07-09T15:39:13;37.20;38.50
7842;DHT22;3966;51.052;13.820;2023-07-09T15:41:39;37.40;38.30
7842;DHT22;3966;51.052;13.820;2023-07-09T15:44:11;37.80;38.30
7842;DHT22;3966;51.052;13.820;2023-07-09T15:46:39;38.20;38.20
7842;DHT22;3966;51.052;13.820;2023-07-09T15:49:06;38.80;38.20
7842;DHT22;3966;51.052;13.820;2023-07-09T15:51:32;38.60;38.90
7842;DHT22;3966;51.052;13.820;2023-07-09T15:53:58;38.60;37.10
7842;DHT22;3966;51.052;13.820;2023-07-09T15:56:28;38.70;37.80
7842;DHT22;3966;51.052;13.820;2023-07-09T15:58:56;38.80;37.50
7842;DHT22;3966;51.052;13.820;2023-07-09T16:01:23;38.60;36.60
7842;DHT22;3966;51.052;13.820;2023-07-09T16:03:51;38.40;37.90
7842;DHT22;3966;51.052;13.820;2023-07-09T16:06:17;37.50;37.20
7842;DHT22;3966;51.052;13.820;2023-07-09T16:08:44;37.40;37.00
7842;DHT22;3966;51.052;13.820;2023-07-09T16:11:20;37.20;37.20
7842;DHT22;3966;51.052;13.820;2023-07-09T16:13:47;37.50;37.40
7842;DHT22;3966;51.052;13.820;2023-07-09T16:16:18;37.80;37.40
7842;DHT22;3966;51.052;13.820;2023-07-09T16:18:44;37.80;37.50
7842;DHT22;3966;51.052;13.820;2023-07-09T16:21:31;37.20;37.80
7842;DHT22;3966;51.052;13.820;2023-07-09T16:23:58;37.10;38.50
7842;DHT22;3966;51.052;13.820;2023-07-09T16:26:27;37.40;38.10
7842;DHT22;3966;51.052;13.820;2023-07-09T16:28:53;37.60;37.70
7842;DHT22;3966;51.052;13.820;2023-07-09T16:31:19;37.50;37.80